Aérodrome :
LOGIN :

S'inscrire | Disclaimer

   EN    FR    IT 

 










Légende :    VFR   VFR Marginal   IFR   IFR Intensif   IFR Très Intensif
Visi : 
Plafond : 
>= 8 km
>= 3000ft
5 à 8 km
1000 à 3000 ft
1500m à 5 km
500 à 1000 ft
800 à 1500m
200 à 500 ft
< 800m
< 200 ft
Symboles :   Orages  Brouillard  Fortes neiges  Fortes précipitations  Vent > 20 kt
SIGMETs :   Divers  Orages  Givrage  Turbulence  Onde Orograph.  Cendres Volcan.







- Altitude de l'aérodrome : 665 ft
- Code IATA : NOC


EIKN - Connaught / Knock- Ireland West

DERNIER METAR :
  • 200800Z 33011KT 9999 -DZ BKN006 BKN013 04/04 Q1019 NOSIG

METARs EXPIRÉS :
  • 200730Z 33015G26KT 9999 -DZ BKN003 BKN015 05/04 Q1018 NOSIG
  • 200700Z 34013KT 5000 -RADZ BKN002 BKN010 05/05 Q1017 NOSIG
  • 200630Z 33018KT 9999 -DZ BKN010 BKN015 05/04 Q1017 NOSIG
  • 200600Z 33019KT 9999 SCT002 BKN007 BKN012 05/05 Q1016 NOSIG

TAF AMD TAF EIKN
Valide du 20 à 07h jusqu'au 21 à 06h UTC


200734Z 2007/2106 34016G28KT 9999 -DZ BKN003
BECMG 2007/2009 33014KT NSW FEW013 BKN025
BECMG 2014/2016 32008KT
BECMG 2018/2020 27006KT
BECMG 2021/2024 22005KT
BECMG 2100/2103 18005KT
BECMG 2104/2106 18010KT
Pas de NOTAMs connus pour ce terrain.
2 SIGMETs publiés pour la FIR Shannon (EISN) :
 
Onde orographique forte
EISN SIGMET 03 VALID 200600/201000 EINN
EISN SHANNON FIR SEV MTW FCST WI N5434 W01000 - N5425 W00810 - N5422 W00800 - N5115 W00800 - N5115 W01030 - N5434 W01000 FL060/220 STNR WKN=
Onde orographique forte
EISN SIGMET 02 VALID 200600/201000 EINN
EISN SHANNON FIR SEV MTW FCST N OF LINE N5434 W01000 - N5425 W00810 FL060/220 STNR WKN=



MET'MAP, la Météo Aéronautique d'un coup d'oeil ! - Copyright ORBIFLY Décembre 2007 - Disclaimer

ORBIFLY MET'MAP TEAM :

Programmation & Développement : Alexandra Zaïnal
Conception & Développement : Baudouin d'Aumeries
Co-Programmation & Développement : Marc-Olivier Méhu
Soutien technique & logistique : Manuel Goepfert

Contact : metmap@orbifly.com




SOURCES & CREDITS :

   NOAA